TAP977 EHAM-LXGB
Flight info
| Callsign | TAP977 |
|---|---|
| Flight time | N/A |
| Altitude | 37000 |
| Route | WOODY N872 CIV/N0439F350 DCT KOVIN DCT DUCRA UM728 RESMI/N0446F370 UN857 DISAK DCT ARKIP DCT ARNAV DCT LMG DCT UVELI DCT OSMOB DCT ARVID DCT PPN DCT NOLSA DCT ALEPO DCT VASUM DCT BANEV DCT BAN DCT GOTOR DCT KAMPO DCT MONTO DCT CRISA N864 PIMOS |
| Aircraft | A319/M-SDE3FGHIRWY/LB1 |
Departure
| Time | 2026-05-06 14:18 |
|---|---|
| Airport | Amsterdam Airport Schiphol (EHAM) |
Arrival
| Time | N/A |
|---|---|
| Airport | Gibraltar Airport (LXGB) |
| Time | Latitude | Longitude | Altitude | Speed | Heading |
|---|---|---|---|---|---|
| 2026-05-06 13:37 | 52.31286 | 4.75612 | -6 ft | 0 kts | 87° |
| 2026-05-06 14:01 | 52.31285 | 4.75585 | -6 ft | 2 kts | 87° |
| 2026-05-06 14:01 | 52.31284 | 4.75558 | -6 ft | 2 kts | 87° |
| 2026-05-06 14:02 | 52.31284 | 4.75532 | -6 ft | 2 kts | 82° |
| 2026-05-06 14:02 | 52.31279 | 4.75507 | -6 ft | 2 kts | 48° |
| 2026-05-06 14:02 | 52.31266 | 4.75490 | -6 ft | 2 kts | 14° |
| 2026-05-06 14:02 | 52.31258 | 4.75487 | -6 ft | 0 kts | 357° |
| 2026-05-06 14:03 | 52.31259 | 4.75487 | -6 ft | 0 kts | 357° |
| 2026-05-06 14:06 | 52.31277 | 4.75482 | -6 ft | 7 kts | 347° |
| 2026-05-06 14:06 | 52.31339 | 4.75449 | -6 ft | 11 kts | 346° |
| 2026-05-06 14:06 | 52.31414 | 4.75433 | -6 ft | 11 kts | 354° |
| 2026-05-06 14:07 | 52.31492 | 4.75416 | -6 ft | 11 kts | 332° |
| 2026-05-06 14:07 | 52.31505 | 4.75297 | -6 ft | 11 kts | 266° |
| 2026-05-06 14:07 | 52.31500 | 4.75174 | -6 ft | 11 kts | 266° |
| 2026-05-06 14:07 | 52.31499 | 4.75048 | -6 ft | 11 kts | 267° |
| 2026-05-06 14:08 | 52.31493 | 4.74919 | -6 ft | 11 kts | 266° |
| 2026-05-06 14:08 | 52.31488 | 4.74790 | -6 ft | 11 kts | 266° |
| 2026-05-06 14:08 | 52.31483 | 4.74660 | -6 ft | 11 kts | 267° |
| 2026-05-06 14:08 | 52.31480 | 4.74529 | -6 ft | 12 kts | 269° |
| 2026-05-06 14:09 | 52.31479 | 4.74397 | -6 ft | 12 kts | 269° |
| 2026-05-06 14:09 | 52.31474 | 4.74263 | -6 ft | 12 kts | 271° |
| 2026-05-06 14:09 | 52.31519 | 4.74153 | -6 ft | 14 kts | 339° |
| 2026-05-06 14:09 | 52.31623 | 4.74154 | -6 ft | 15 kts | 3° |
| 2026-05-06 14:10 | 52.31731 | 4.74166 | -6 ft | 16 kts | 3° |
| 2026-05-06 14:10 | 52.31841 | 4.74177 | -6 ft | 16 kts | 3° |
| 2026-05-06 14:10 | 52.31954 | 4.74178 | -6 ft | 16 kts | 359° |
| 2026-05-06 14:10 | 52.32032 | 4.74088 | -6 ft | 15 kts | 280° |
| 2026-05-06 14:11 | 52.32043 | 4.73925 | -4 ft | 14 kts | 274° |
| 2026-05-06 14:11 | 52.32048 | 4.73772 | -5 ft | 14 kts | 273° |
| 2026-05-06 14:11 | 52.32055 | 4.73608 | -6 ft | 15 kts | 274° |
| 2026-05-06 14:11 | 52.32062 | 4.73441 | -6 ft | 15 kts | 282° |
| 2026-05-06 14:12 | 52.32124 | 4.73306 | -6 ft | 16 kts | 318° |
| 2026-05-06 14:12 | 52.32210 | 4.73186 | -6 ft | 16 kts | 320° |
| 2026-05-06 14:12 | 52.32296 | 4.73063 | -6 ft | 16 kts | 318° |
| 2026-05-06 14:12 | 52.32383 | 4.72939 | -6 ft | 17 kts | 319° |
| 2026-05-06 14:13 | 52.32474 | 4.72820 | -6 ft | 17 kts | 322° |
| 2026-05-06 14:13 | 52.32563 | 4.72695 | -6 ft | 17 kts | 316° |
| 2026-05-06 14:13 | 52.32651 | 4.72566 | -6 ft | 17 kts | 319° |
| 2026-05-06 14:13 | 52.32731 | 4.72423 | -6 ft | 17 kts | 312° |
| 2026-05-06 14:14 | 52.32811 | 4.72278 | -6 ft | 17 kts | 312° |
| 2026-05-06 14:14 | 52.32839 | 4.72096 | -6 ft | 17 kts | 269° |
| 2026-05-06 14:14 | 52.32868 | 4.71916 | -6 ft | 17 kts | 309° |
| 2026-05-06 14:14 | 52.32941 | 4.71769 | -6 ft | 17 kts | 302° |
| 2026-05-06 14:15 | 52.33019 | 4.71633 | -6 ft | 16 kts | 315° |
| 2026-05-06 14:15 | 52.33096 | 4.71496 | -6 ft | 16 kts | 310° |
| 2026-05-06 14:15 | 52.33173 | 4.71356 | -6 ft | 17 kts | 311° |
| 2026-05-06 14:15 | 52.33249 | 4.71215 | -6 ft | 16 kts | 310° |
| 2026-05-06 14:16 | 52.33300 | 4.71119 | -6 ft | 0 kts | 313° |
| 2026-05-06 14:16 | 52.33303 | 4.71115 | -6 ft | 2 kts | 312° |
| 2026-05-06 14:16 | 52.33351 | 4.71025 | -5 ft | 19 kts | 314° |
| 2026-05-06 14:17 | 52.33503 | 4.70936 | -4 ft | 30 kts | 0° |
| 2026-05-06 14:17 | 52.33966 | 4.70974 | -3 ft | 101 kts | 4° |
| 2026-05-06 14:17 | 52.34872 | 4.71067 | -1 ft | 157 kts | 3° |
| 2026-05-06 14:17 | 52.36011 | 4.71155 | 510 ft | 162 kts | 7° |
| 2026-05-06 14:18 | 52.37134 | 4.71288 | 1305 ft | 161 kts | 8° |
| 2026-05-06 14:18 | 52.38268 | 4.71457 | 1904 ft | 172 kts | 8° |
| 2026-05-06 14:18 | 52.39538 | 4.71613 | 2265 ft | 195 kts | 7° |
| 2026-05-06 14:18 | 52.40818 | 4.72213 | 3069 ft | 192 kts | 33° |
| 2026-05-06 14:19 | 52.41738 | 4.73778 | 3890 ft | 192 kts | 60° |
| 2026-05-06 14:19 | 52.42151 | 4.75855 | 4722 ft | 197 kts | 84° |
| 2026-05-06 14:19 | 52.41913 | 4.78093 | 5436 ft | 207 kts | 112° |
| 2026-05-06 14:19 | 52.40979 | 4.79927 | 6210 ft | 217 kts | 143° |
| 2026-05-06 14:20 | 52.39545 | 4.80801 | 6923 ft | 226 kts | 168° |
| 2026-05-06 14:20 | 52.37988 | 4.81245 | 7669 ft | 228 kts | 169° |
| 2026-05-06 14:20 | 52.36415 | 4.81699 | 8388 ft | 233 kts | 169° |
| 2026-05-06 14:20 | 52.34747 | 4.82187 | 8835 ft | 252 kts | 169° |
| 2026-05-06 14:21 | 52.33009 | 4.82694 | 9471 ft | 265 kts | 169° |
| 2026-05-06 14:21 | 52.31118 | 4.83239 | 9857 ft | 287 kts | 170° |
| 2026-05-06 14:21 | 52.29082 | 4.83824 | 10197 ft | 309 kts | 170° |
| 2026-05-06 14:21 | 52.26883 | 4.84454 | 10564 ft | 329 kts | 170° |
| 2026-05-06 14:22 | 52.24575 | 4.84780 | 11224 ft | 337 kts | 181° |
| 2026-05-06 14:22 | 52.22213 | 4.84723 | 12011 ft | 341 kts | 182° |
| 2026-05-06 14:22 | 52.19832 | 4.84669 | 12809 ft | 344 kts | 182° |
| 2026-05-06 14:22 | 52.17424 | 4.84619 | 13590 ft | 348 kts | 182° |
| 2026-05-06 14:23 | 52.15051 | 4.84571 | 14269 ft | 351 kts | 182° |
| 2026-05-06 14:23 | 52.12598 | 4.84518 | 14961 ft | 354 kts | 182° |
| 2026-05-06 14:23 | 52.10122 | 4.84463 | 15654 ft | 356 kts | 182° |
| 2026-05-06 14:23 | 52.07634 | 4.84409 | 16348 ft | 359 kts | 182° |
| 2026-05-06 14:24 | 52.05122 | 4.84356 | 17041 ft | 362 kts | 182° |
| 2026-05-06 14:24 | 52.02617 | 4.83966 | 17715 ft | 363 kts | 193° |
| 2026-05-06 14:24 | 52.00192 | 4.82802 | 18366 ft | 364 kts | 204° |
| 2026-05-06 14:24 | 51.97899 | 4.81047 | 18956 ft | 366 kts | 207° |
| 2026-05-06 14:25 | 51.95607 | 4.79236 | 19559 ft | 368 kts | 207° |
| 2026-05-06 14:25 | 51.93292 | 4.77416 | 20167 ft | 370 kts | 207° |
| 2026-05-06 14:25 | 51.90959 | 4.75589 | 20757 ft | 373 kts | 207° |
| 2026-05-06 14:25 | 51.88612 | 4.73755 | 21346 ft | 376 kts | 207° |
| 2026-05-06 14:26 | 51.86247 | 4.71910 | 21921 ft | 379 kts | 207° |
| 2026-05-06 14:26 | 51.83859 | 4.70051 | 22497 ft | 382 kts | 207° |
| 2026-05-06 14:26 | 51.81460 | 4.68180 | 23066 ft | 385 kts | 207° |
| 2026-05-06 14:26 | 51.80676 | 4.67568 | 23251 ft | 385 kts | 207° |
| 2026-05-06 14:27 | 51.79465 | 4.66608 | 23526 ft | 386 kts | 207° |
| 2026-05-06 14:27 | 51.77038 | 4.64690 | 23965 ft | 389 kts | 207° |
| 2026-05-06 14:27 | 51.74626 | 4.62812 | 24418 ft | 392 kts | 206° |
| 2026-05-06 14:27 | 51.72158 | 4.60914 | 24866 ft | 394 kts | 206° |
| 2026-05-06 14:28 | 51.69674 | 4.59010 | 25311 ft | 397 kts | 206° |
| 2026-05-06 14:28 | 51.67175 | 4.57090 | 25747 ft | 399 kts | 206° |
| 2026-05-06 14:28 | 51.64662 | 4.55151 | 26182 ft | 402 kts | 206° |
| 2026-05-06 14:28 | 51.62132 | 4.53195 | 26614 ft | 404 kts | 206° |
| 2026-05-06 14:29 | 51.59595 | 4.51233 | 27037 ft | 406 kts | 206° |
| 2026-05-06 14:29 | 51.57037 | 4.49258 | 27460 ft | 409 kts | 206° |
| 2026-05-06 14:29 | 51.54465 | 4.47279 | 27878 ft | 411 kts | 206° |
| 2026-05-06 14:29 | 51.51878 | 4.45294 | 28301 ft | 413 kts | 206° |
| 2026-05-06 14:30 | 51.49272 | 4.43302 | 28710 ft | 416 kts | 205° |
| 2026-05-06 14:30 | 51.46651 | 4.41305 | 29111 ft | 418 kts | 205° |
| 2026-05-06 14:30 | 51.44017 | 4.39298 | 29509 ft | 420 kts | 205° |
| 2026-05-06 14:30 | 51.41366 | 4.37275 | 29892 ft | 423 kts | 205° |
| 2026-05-06 14:31 | 51.38908 | 4.35396 | 30199 ft | 425 kts | 205° |
| 2026-05-06 14:31 | 51.36298 | 4.33403 | 30513 ft | 427 kts | 205° |
| 2026-05-06 14:31 | 51.33605 | 4.31352 | 30821 ft | 429 kts | 205° |
| 2026-05-06 14:31 | 51.30898 | 4.29296 | 31123 ft | 431 kts | 205° |
| 2026-05-06 14:32 | 51.28182 | 4.27236 | 31436 ft | 433 kts | 205° |
| 2026-05-06 14:32 | 51.25456 | 4.25168 | 31858 ft | 432 kts | 205° |
| 2026-05-06 14:32 | 51.22749 | 4.23119 | 32296 ft | 431 kts | 205° |
| 2026-05-06 14:32 | 51.20040 | 4.21071 | 32725 ft | 430 kts | 205° |
| 2026-05-06 14:33 | 51.17333 | 4.19029 | 33128 ft | 429 kts | 205° |
| 2026-05-06 14:33 | 51.14551 | 4.17312 | 33536 ft | 429 kts | 199° |
| 2026-05-06 14:33 | 51.11731 | 4.15767 | 33946 ft | 428 kts | 199° |
| 2026-05-06 14:33 | 51.08913 | 4.14227 | 34277 ft | 428 kts | 199° |
| 2026-05-06 14:34 | 51.06098 | 4.12690 | 34588 ft | 428 kts | 199° |
| 2026-05-06 14:34 | 51.03285 | 4.11153 | 34883 ft | 428 kts | 199° |
| 2026-05-06 14:34 | 51.00466 | 4.09611 | 35164 ft | 428 kts | 199° |
| 2026-05-06 14:34 | 50.97650 | 4.08069 | 35435 ft | 428 kts | 199° |
| 2026-05-06 14:35 | 50.94871 | 4.06548 | 35696 ft | 428 kts | 199° |
| 2026-05-06 14:35 | 50.92053 | 4.05013 | 35957 ft | 429 kts | 199° |
| 2026-05-06 14:35 | 50.89231 | 4.03481 | 36211 ft | 429 kts | 199° |
| 2026-05-06 14:35 | 50.86416 | 4.01914 | 36448 ft | 429 kts | 201° |
| 2026-05-06 14:36 | 50.83633 | 4.00220 | 36699 ft | 428 kts | 202° |
| 2026-05-06 14:36 | 50.80873 | 3.98430 | 36864 ft | 429 kts | 203° |
| 2026-05-06 14:36 | 50.75401 | 3.94787 | 36898 ft | 425 kts | 203° |
| 2026-05-06 14:37 | 50.69934 | 3.91227 | 36899 ft | 425 kts | 202° |
| 2026-05-06 14:37 | 50.64448 | 3.87738 | 36897 ft | 425 kts | 202° |
| 2026-05-06 14:38 | 50.58954 | 3.84272 | 36898 ft | 425 kts | 202° |
| 2026-05-06 14:38 | 50.53482 | 3.80726 | 36899 ft | 425 kts | 204° |
| 2026-05-06 14:39 | 50.48067 | 3.76989 | 36898 ft | 425 kts | 204° |
| 2026-05-06 14:39 | 50.43569 | 3.73867 | 36898 ft | 425 kts | 204° |
| 2026-05-06 14:40 | 50.37260 | 3.69555 | 36895 ft | 425 kts | 204° |
| 2026-05-06 14:40 | 50.32739 | 3.66497 | 36898 ft | 426 kts | 204° |
| 2026-05-06 14:41 | 50.27265 | 3.62803 | 36900 ft | 426 kts | 204° |
| 2026-05-06 14:41 | 50.21859 | 3.59171 | 36895 ft | 426 kts | 204° |
| 2026-05-06 14:42 | 50.16754 | 3.55730 | 36900 ft | 426 kts | 204° |
| 2026-05-06 14:42 | 50.11346 | 3.52093 | 36900 ft | 426 kts | 204° |
| 2026-05-06 14:43 | 50.05863 | 3.48426 | 36899 ft | 426 kts | 204° |
| 2026-05-06 14:43 | 50.00455 | 3.44822 | 36904 ft | 426 kts | 204° |
| 2026-05-06 14:44 | 49.95007 | 3.41197 | 36903 ft | 426 kts | 204° |
| 2026-05-06 14:45 | 49.86827 | 3.35767 | 36903 ft | 426 kts | 204° |
| 2026-05-06 14:45 | 49.81369 | 3.32142 | 36903 ft | 426 kts | 204° |
| 2026-05-06 14:46 | 49.75910 | 3.28539 | 36902 ft | 427 kts | 203° |
| 2026-05-06 14:46 | 49.70443 | 3.24948 | 36900 ft | 427 kts | 203° |
| 2026-05-06 14:47 | 49.64972 | 3.21354 | 36902 ft | 427 kts | 204° |
| 2026-05-06 14:47 | 49.59499 | 3.17770 | 36903 ft | 427 kts | 203° |
| 2026-05-06 14:48 | 49.54028 | 3.14194 | 36905 ft | 427 kts | 203° |
| 2026-05-06 14:48 | 49.48587 | 3.10519 | 36904 ft | 427 kts | 209° |
| 2026-05-06 14:49 | 49.43594 | 3.05575 | 36904 ft | 427 kts | 214° |
| 2026-05-06 14:49 | 49.38643 | 3.00532 | 36905 ft | 427 kts | 214° |
| 2026-05-06 14:50 | 49.33687 | 2.95501 | 36908 ft | 427 kts | 213° |
| 2026-05-06 14:50 | 49.28720 | 2.90487 | 36908 ft | 427 kts | 213° |
| 2026-05-06 14:51 | 49.23812 | 2.85547 | 36908 ft | 427 kts | 213° |
| 2026-05-06 14:51 | 49.19209 | 2.80922 | 36907 ft | 427 kts | 213° |
| 2026-05-06 14:52 | 49.14247 | 2.75934 | 36906 ft | 427 kts | 213° |
| 2026-05-06 14:52 | 49.09283 | 2.70954 | 36909 ft | 427 kts | 213° |
| 2026-05-06 14:53 | 49.04312 | 2.65988 | 36910 ft | 427 kts | 213° |
| 2026-05-06 14:53 | 48.99320 | 2.61028 | 36910 ft | 427 kts | 213° |
| 2026-05-06 14:54 | 48.94351 | 2.56087 | 36911 ft | 428 kts | 213° |
| 2026-05-06 14:54 | 48.89366 | 2.51139 | 36939 ft | 428 kts | 213° |
| 2026-05-06 14:55 | 48.84369 | 2.46193 | 36936 ft | 428 kts | 213° |
| 2026-05-06 14:55 | 48.79375 | 2.41260 | 36917 ft | 428 kts | 213° |
| 2026-05-06 14:56 | 48.74373 | 2.36343 | 36918 ft | 428 kts | 213° |
| 2026-05-06 14:56 | 48.69367 | 2.31429 | 36919 ft | 429 kts | 213° |
| 2026-05-06 14:57 | 48.64362 | 2.26525 | 36918 ft | 429 kts | 213° |
| 2026-05-06 14:57 | 48.59382 | 2.21662 | 36915 ft | 429 kts | 212° |
| 2026-05-06 14:58 | 48.53885 | 2.18226 | 36914 ft | 431 kts | 193° |
| 2026-05-06 14:58 | 48.48017 | 2.16349 | 36910 ft | 431 kts | 193° |
| 2026-05-06 14:59 | 48.42146 | 2.14459 | 36910 ft | 432 kts | 193° |
| 2026-05-06 14:59 | 48.36272 | 2.12560 | 36913 ft | 432 kts | 193° |
| 2026-05-06 15:00 | 48.30389 | 2.10718 | 36916 ft | 432 kts | 189° |
| 2026-05-06 15:00 | 48.24382 | 2.10832 | 36912 ft | 434 kts | 173° |
| 2026-05-06 15:01 | 48.18399 | 2.12106 | 36917 ft | 434 kts | 173° |
| 2026-05-06 15:01 | 48.12397 | 2.12894 | 36923 ft | 433 kts | 184° |
| 2026-05-06 15:02 | 48.06431 | 2.11824 | 36931 ft | 432 kts | 188° |
| 2026-05-06 15:02 | 48.00461 | 2.10689 | 36941 ft | 432 kts | 188° |
| 2026-05-06 15:03 | 47.94492 | 2.09560 | 36943 ft | 432 kts | 188° |
| 2026-05-06 15:03 | 47.88523 | 2.08427 | 36944 ft | 432 kts | 188° |
| 2026-05-06 15:04 | 47.82555 | 2.07287 | 36944 ft | 432 kts | 188° |
| 2026-05-06 15:04 | 47.76591 | 2.06148 | 36932 ft | 433 kts | 188° |
| 2026-05-06 15:05 | 47.70618 | 2.05018 | 36932 ft | 433 kts | 188° |
| 2026-05-06 15:05 | 47.64642 | 2.03846 | 36936 ft | 433 kts | 192° |
| 2026-05-06 15:06 | 47.58978 | 2.01111 | 36935 ft | 431 kts | 202° |
| 2026-05-06 15:06 | 47.53389 | 1.97864 | 36939 ft | 432 kts | 202° |
| 2026-05-06 15:07 | 47.47788 | 1.94634 | 36944 ft | 432 kts | 202° |
| 2026-05-06 15:07 | 47.42187 | 1.91402 | 36947 ft | 432 kts | 202° |
| 2026-05-06 15:08 | 47.36592 | 1.88171 | 36951 ft | 432 kts | 202° |
| 2026-05-06 15:08 | 47.30999 | 1.84950 | 36948 ft | 432 kts | 202° |
| 2026-05-06 15:09 | 47.25393 | 1.81743 | 36948 ft | 432 kts | 202° |
| 2026-05-06 15:09 | 47.19791 | 1.78543 | 36955 ft | 432 kts | 202° |
| 2026-05-06 15:10 | 47.14173 | 1.75359 | 36953 ft | 432 kts | 202° |
| 2026-05-06 15:10 | 47.08555 | 1.72200 | 36936 ft | 432 kts | 202° |
| 2026-05-06 15:11 | 47.02975 | 1.69066 | 36932 ft | 432 kts | 202° |
| 2026-05-06 15:11 | 46.97362 | 1.65914 | 36928 ft | 432 kts | 202° |
| 2026-05-06 15:12 | 46.91747 | 1.62775 | 36919 ft | 432 kts | 202° |
| 2026-05-06 15:12 | 46.86133 | 1.59646 | 36919 ft | 432 kts | 202° |
| 2026-05-06 15:13 | 46.80516 | 1.56523 | 36920 ft | 432 kts | 202° |
| 2026-05-06 15:13 | 46.74895 | 1.53400 | 36923 ft | 432 kts | 202° |
| 2026-05-06 15:14 | 46.69274 | 1.50283 | 36928 ft | 432 kts | 202° |
| 2026-05-06 15:14 | 46.63649 | 1.47177 | 36932 ft | 432 kts | 202° |
| 2026-05-06 15:15 | 46.58017 | 1.44065 | 36940 ft | 433 kts | 202° |
| 2026-05-06 15:15 | 46.52389 | 1.40966 | 36934 ft | 433 kts | 202° |
| 2026-05-06 15:16 | 46.46755 | 1.37871 | 36933 ft | 433 kts | 201° |
| 2026-05-06 15:16 | 46.41124 | 1.34784 | 36926 ft | 433 kts | 202° |
| 2026-05-06 15:17 | 46.35494 | 1.31702 | 36933 ft | 433 kts | 202° |
| 2026-05-06 15:17 | 46.29857 | 1.28627 | 36931 ft | 432 kts | 202° |
| 2026-05-06 15:18 | 46.24259 | 1.25587 | 36928 ft | 432 kts | 202° |
| 2026-05-06 15:18 | 46.18631 | 1.22530 | 36913 ft | 432 kts | 202° |
| 2026-05-06 15:19 | 46.12999 | 1.19466 | 36904 ft | 432 kts | 202° |
| 2026-05-06 15:19 | 46.07362 | 1.16412 | 36903 ft | 433 kts | 202° |
| 2026-05-06 15:20 | 46.01723 | 1.13377 | 36898 ft | 433 kts | 202° |
| 2026-05-06 15:20 | 45.96076 | 1.10347 | 36894 ft | 433 kts | 202° |
| 2026-05-06 15:21 | 45.90442 | 1.07318 | 36889 ft | 433 kts | 202° |
| 2026-05-06 15:21 | 45.84799 | 1.04294 | 36892 ft | 433 kts | 202° |
| 2026-05-06 15:22 | 45.79574 | 1.00146 | 36896 ft | 429 kts | 220° |
| 2026-05-06 15:22 | 45.75012 | 0.94639 | 36894 ft | 428 kts | 221° |
| 2026-05-06 15:23 | 45.70438 | 0.89173 | 36899 ft | 428 kts | 221° |
| 2026-05-06 15:23 | 45.65851 | 0.83721 | 36898 ft | 429 kts | 221° |
| 2026-05-06 15:24 | 45.61292 | 0.78306 | 36904 ft | 429 kts | 221° |
| 2026-05-06 15:24 | 45.56675 | 0.72822 | 36908 ft | 429 kts | 221° |
| 2026-05-06 15:25 | 45.52108 | 0.67411 | 36908 ft | 429 kts | 221° |
| 2026-05-06 15:25 | 45.47515 | 0.61971 | 36908 ft | 429 kts | 221° |
| 2026-05-06 15:26 | 45.43663 | 0.57409 | 36914 ft | 429 kts | 221° |
| 2026-05-06 15:26 | 45.39095 | 0.52020 | 36913 ft | 429 kts | 221° |
| 2026-05-06 15:27 | 45.34490 | 0.46602 | 36913 ft | 430 kts | 221° |
| 2026-05-06 15:27 | 45.29883 | 0.41198 | 36915 ft | 429 kts | 221° |
| 2026-05-06 15:28 | 45.25274 | 0.35807 | 36914 ft | 429 kts | 221° |
| 2026-05-06 15:28 | 45.20663 | 0.30413 | 36917 ft | 429 kts | 221° |
| 2026-05-06 15:29 | 45.16054 | 0.25032 | 36917 ft | 429 kts | 221° |
| 2026-05-06 15:29 | 45.11435 | 0.19661 | 36924 ft | 429 kts | 221° |
| 2026-05-06 15:30 | 45.06818 | 0.14304 | 36930 ft | 429 kts | 221° |
| 2026-05-06 15:30 | 45.02189 | 0.08950 | 36934 ft | 429 kts | 221° |
| 2026-05-06 15:31 | 44.97567 | 0.03609 | 36938 ft | 429 kts | 221° |
| 2026-05-06 15:31 | 44.92966 | -0.01706 | 36945 ft | 429 kts | 221° |
| 2026-05-06 15:32 | 44.86021 | -0.09705 | 36951 ft | 429 kts | 221° |
| 2026-05-06 15:32 | 44.81397 | -0.15020 | 36955 ft | 429 kts | 221° |
| 2026-05-06 15:33 | 44.76799 | -0.20289 | 36959 ft | 429 kts | 221° |
| 2026-05-06 15:33 | 44.72163 | -0.25570 | 36961 ft | 429 kts | 221° |
| 2026-05-06 15:34 | 44.67524 | -0.30838 | 36964 ft | 428 kts | 221° |
| 2026-05-06 15:34 | 44.62593 | -0.35537 | 36958 ft | 431 kts | 210° |
| 2026-05-06 15:35 | 44.57276 | -0.39444 | 36957 ft | 431 kts | 210° |
| 2026-05-06 15:35 | 44.51961 | -0.43344 | 36968 ft | 431 kts | 210° |
| 2026-05-06 15:36 | 44.46643 | -0.47244 | 36964 ft | 431 kts | 210° |
| 2026-05-06 15:36 | 44.41327 | -0.51146 | 36972 ft | 431 kts | 210° |